Time;durP1;ratioP1;P1;durP2;ratioP2;P2;SDS_P1;SDS_P2;PMS_P1;PMS_P2;Temp;Humidity;BMP_temperature;BMP_pressure;BME280_temperature;BME280_humidity;BME280_pressure;Samples;Min_cycle;Max_cycle;Signal;HPM_P1;HPM_P2
2022/04/02 00:01:48;;;;;;;5.28;2.70;;;2.00;99.90;;;;;;5052714;28;20032;-55
2022/04/02 00:04:14;;;;;;;3.78;2.00;;;2.20;99.90;;;;;;5055897;28;20032;-54
2022/04/02 00:06:39;;;;;;;8.02;2.22;;;2.20;99.90;;;;;;5056676;28;20024;-57
2022/04/02 00:09:05;;;;;;;5.25;2.60;;;1.80;99.90;;;;;;5056628;28;20087;-55
2022/04/02 00:11:31;;;;;;;5.95;2.08;;;2.00;99.90;;;;;;5056466;28;20037;-59
2022/04/02 00:13:58;;;;;;;7.57;2.20;;;2.20;99.90;;;;;;5056471;28;20032;-55
2022/04/02 00:16:24;;;;;;;13.55;3.28;;;2.10;99.90;;;;;;5056837;28;20024;-56
2022/04/02 00:18:50;;;;;;;4.53;2.70;;;1.70;99.90;;;;;;5055152;28;20494;-54
2022/04/02 00:21:17;;;;;;;4.38;2.30;;;1.80;99.90;;;;;;5056633;28;20017;-55
2022/04/02 00:23:46;;;;;;;5.00;2.58;;;1.90;99.90;;;;;;5056410;28;20116;-55
2022/04/02 00:26:13;;;;;;;4.35;2.28;;;1.90;99.90;;;;;;5056331;28;20044;-56
2022/04/02 00:28:41;;;;;;;8.45;2.78;;;2.00;99.90;;;;;;5054930;28;20090;-57
2022/04/02 00:31:07;;;;;;;4.80;2.60;;;2.00;99.90;;;;;;5056625;28;20021;-54
2022/04/02 00:33:34;;;;;;;4.80;2.78;;;2.00;99.90;;;;;;5055154;28;20021;-54
2022/04/02 00:36:00;;;;;;;9.27;3.20;;;2.20;99.90;;;;;;5055472;28;20112;-57
2022/04/02 00:38:26;;;;;;;7.35;2.75;;;2.20;99.90;;;;;;5056070;28;20098;-55
2022/04/02 00:40:52;;;;;;;5.57;3.05;;;2.10;99.90;;;;;;5055079;28;20096;-55
2022/04/02 00:43:25;;;;;;;5.95;2.80;;;2.10;99.90;;;;;;5056358;28;20048;-54
2022/04/02 00:45:52;;;;;;;9.13;3.28;;;2.20;99.90;;;;;;5055972;28;20017;-60
2022/04/02 00:48:18;;;;;;;9.60;3.28;;;2.00;99.90;;;;;;5055880;28;20025;-56
2022/04/02 00:50:52;;;;;;;4.75;2.47;;;1.80;99.90;;;;;;5055831;28;20021;-55
2022/04/02 00:53:18;;;;;;;5.38;2.85;;;1.70;99.90;;;;;;5054657;28;20024;-53
2022/04/02 00:55:45;;;;;;;6.60;3.30;;;1.50;99.90;;;;;;5054550;28;20071;-56
2022/04/02 00:58:12;;;;;;;9.95;3.20;;;1.50;99.90;;;;;;5054818;28;20024;-54
2022/04/02 01:00:41;;;;;;;8.63;3.35;;;1.60;99.90;;;;;;5055641;28;20025;-53
2022/04/02 01:03:08;;;;;;;8.55;3.88;;;1.80;99.90;;;;;;5054449;28;20029;-54
2022/04/02 01:05:35;;;;;;;9.13;3.55;;;1.90;99.90;;;;;;5054356;28;20095;-52
2022/04/02 01:08:05;;;;;;;6.25;3.47;;;1.70;99.90;;;;;;5055530;28;20021;-55
2022/04/02 01:10:31;;;;;;;11.65;3.92;;;1.70;99.90;;;;;;5055441;28;20021;-55
2022/04/02 01:12:57;;;;;;;10.95;3.78;;;1.60;99.90;;;;;;5055517;28;20032;-56
2022/04/02 01:15:23;;;;;;;5.45;2.90;;;1.60;99.90;;;;;;5054444;28;20116;-56
2022/04/02 01:17:48;;;;;;;6.72;3.45;;;1.70;99.90;;;;;;5054072;28;20111;-54
2022/04/02 01:20:15;;;;;;;10.27;4.57;;;1.70;99.90;;;;;;5055261;28;20410;-52
2022/04/02 01:22:41;;;;;;;7.40;3.60;;;1.70;99.90;;;;;;5054878;28;20029;-54
2022/04/02 01:25:08;;;;;;;6.32;3.38;;;1.90;99.90;;;;;;5055221;28;20017;-52
2022/04/02 01:27:34;;;;;;;4.75;3.45;;;1.90;99.90;;;;;;5055122;28;20028;-55
2022/04/02 01:30:00;;;;;;;4.38;2.92;;;2.00;99.90;;;;;;5053825;28;20017;-58
2022/04/02 01:32:26;;;;;;;7.97;3.15;;;2.00;99.90;;;;;;5054873;28;20533;-53
2022/04/02 01:34:51;;;;;;;5.28;3.15;;;2.10;99.90;;;;;;5054950;28;20021;-56
2022/04/02 01:37:17;;;;;;;4.68;3.47;;;2.10;99.90;;;;;;5053567;28;20112;-55
2022/04/02 01:39:43;;;;;;;5.15;3.05;;;2.20;99.90;;;;;;5054614;28;20025;-54
2022/04/02 01:42:09;;;;;;;6.57;3.53;;;2.30;99.90;;;;;;5054657;28;20031;-54
2022/04/02 01:44:35;;;;;;;6.20;3.38;;;2.10;99.90;;;;;;5054741;28;20104;-57
2022/04/02 01:47:02;;;;;;;6.03;3.33;;;2.00;99.90;;;;;;5054419;28;20021;-57
2022/04/02 01:49:28;;;;;;;6.88;3.45;;;2.00;99.90;;;;;;5054760;28;20021;-55
2022/04/02 01:51:53;;;;;;;4.82;3.25;;;2.10;99.90;;;;;;5054759;28;20100;-58
2022/04/02 01:54:20;;;;;;;9.93;3.20;;;1.90;99.90;;;;;;5053993;28;20119;-57
2022/04/02 01:56:47;;;;;;;4.90;3.40;;;2.00;99.90;;;;;;5054679;28;20096;-57
2022/04/02 01:59:13;;;;;;;7.70;3.30;;;1.90;99.90;;;;;;5053355;28;20033;-59
2022/04/02 02:01:39;;;;;;;7.40;3.83;;;1.90;99.90;;;;;;5053164;28;20074;-59
2022/04/02 02:04:05;;;;;;;5.80;3.17;;;1.70;99.90;;;;;;5053536;28;20472;-59
2022/04/02 02:06:31;;;;;;;10.80;3.60;;;1.50;99.90;;;;;;5054483;28;20029;-54
2022/04/02 02:08:57;;;;;;;7.75;3.38;;;1.60;99.90;;;;;;5054624;28;20031;-55
2022/04/02 02:11:23;;;;;;;6.60;3.63;;;1.60;99.90;;;;;;5053331;28;20033;-57
2022/04/02 02:13:49;;;;;;;8.98;3.58;;;1.70;99.90;;;;;;5053087;28;20027;-57
2022/04/02 02:16:14;;;;;;;6.05;3.78;;;1.80;99.90;;;;;;5053278;28;20053;-57
2022/04/02 02:18:40;;;;;;;11.57;3.85;;;1.90;99.90;;;;;;5053762;28;20021;-58
2022/04/02 02:21:05;;;;;;;4.20;2.90;;;2.00;99.90;;;;;;5054060;28;20079;-58
2022/04/02 02:23:31;;;;;;;11.00;3.25;;;2.00;99.90;;;;;;5054165;28;20031;-58
2022/04/02 02:25:57;;;;;;;5.10;3.03;;;2.00;99.90;;;;;;5053996;28;20060;-56
2022/04/02 02:28:23;;;;;;;5.50;3.53;;;2.10;99.90;;;;;;5054188;28;20029;-59
2022/04/02 02:30:48;;;;;;;5.90;3.50;;;2.00;99.90;;;;;;5053953;28;20013;-56
2022/04/02 02:36:18;;;;;;;4.97;3.10;;;2.10;99.90;;;;;;5011714;28;20017;-55
2022/04/02 02:38:45;;;;;;;9.65;3.38;;;2.00;99.90;;;;;;4995183;28;20029;-56
2022/04/02 02:41:10;;;;;;;8.80;3.10;;;2.10;99.90;;;;;;5020168;28;20120;-57
2022/04/02 02:43:37;;;;;;;4.60;2.92;;;2.10;99.90;;;;;;5052138;28;20068;-57
2022/04/02 02:46:02;;;;;;;5.43;3.60;;;2.30;99.90;;;;;;5052799;28;20061;-58
2022/04/02 02:48:28;;;;;;;11.07;3.53;;;2.20;99.90;;;;;;5052412;28;20061;-57
2022/04/02 02:50:54;;;;;;;7.78;4.95;;;2.20;99.90;;;;;;5053820;28;20025;-58
2022/04/02 02:53:20;;;;;;;4.28;3.17;;;2.20;99.90;;;;;;5052310;28;20025;-58
2022/04/02 02:55:46;;;;;;;5.85;3.45;;;2.40;99.90;;;;;;5052648;28;20029;-57
2022/04/02 02:58:12;;;;;;;5.18;3.22;;;2.30;99.90;;;;;;5053580;28;20064;-55
2022/04/02 03:00:40;;;;;;;11.05;4.00;;;2.40;99.90;;;;;;5053962;28;20103;-54
2022/04/02 03:03:06;;;;;;;11.27;3.55;;;2.40;99.90;;;;;;5053763;28;20021;-58
2022/04/02 03:05:31;;;;;;;7.47;4.13;;;2.50;99.90;;;;;;5053467;28;20021;-56
2022/04/02 03:07:57;;;;;;;5.53;3.97;;;2.40;99.90;;;;;;5053319;28;20112;-56
2022/04/02 03:10:25;;;;;;;6.05;3.30;;;2.20;99.90;;;;;;5053275;28;20021;-57
2022/04/02 03:12:51;;;;;;;10.05;3.92;;;2.30;99.90;;;;;;5053720;28;20024;-57
2022/04/02 03:15:18;;;;;;;8.00;3.25;;;2.50;99.90;;;;;;5052375;28;20017;-56
2022/04/02 03:17:45;;;;;;;7.53;3.10;;;2.50;99.90;;;;;;5053134;28;20025;-56
2022/04/02 03:20:15;;;;;;;4.90;3.30;;;2.40;99.90;;;;;;5052829;28;20036;-57
2022/04/02 03:22:42;;;;;;;5.22;3.20;;;2.40;99.90;;;;;;5052260;28;20071;-56
2022/04/02 03:25:13;;;;;;;5.47;3.10;;;2.30;99.90;;;;;;5053156;28;20022;-58
2022/04/02 03:27:40;;;;;;;8.30;4.18;;;2.30;99.90;;;;;;5053368;28;20029;-54
2022/04/02 03:30:09;;;;;;;6.45;4.18;;;2.20;99.90;;;;;;5053362;28;20379;-58
2022/04/02 03:32:35;;;;;;;6.13;3.30;;;2.10;99.90;;;;;;5051711;28;20048;-55
2022/04/02 03:35:00;;;;;;;5.97;3.50;;;2.00;99.90;;;;;;5051873;28;20067;-57
2022/04/02 03:37:26;;;;;;;9.35;3.47;;;2.20;99.90;;;;;;5051906;28;20107;-58
2022/04/02 03:39:52;;;;;;;5.45;3.50;;;2.20;99.90;;;;;;5055990;28;20110;-58
2022/04/02 03:42:20;;;;;;;8.40;3.63;;;2.40;99.90;;;;;;5057048;28;20044;-58
2022/04/02 03:44:46;;;;;;;6.95;3.15;;;2.40;99.90;;;;;;5055874;28;20585;-57
2022/04/02 03:47:11;;;;;;;7.82;4.07;;;2.60;99.90;;;;;;5055863;28;20033;-55
2022/04/02 03:49:38;;;;;;;6.75;3.10;;;2.40;99.90;;;;;;5055696;28;20021;-52
2022/04/02 03:52:04;;;;;;;5.22;2.67;;;2.30;99.90;;;;;;5055639;28;20025;-56
2022/04/02 03:54:30;;;;;;;11.55;3.50;;;2.40;99.90;;;;;;5055648;28;20075;-57
2022/04/02 03:56:56;;;;;;;9.13;3.42;;;2.50;99.90;;;;;;5056880;28;20024;-57
2022/04/02 03:59:22;;;;;;;6.15;3.30;;;2.50;99.90;;;;;;5055603;28;20053;-56
2022/04/02 04:01:48;;;;;;;6.07;3.13;;;2.50;99.90;;;;;;5055999;28;20052;-58
2022/04/02 04:04:13;;;;;;;6.35;3.60;;;2.70;99.90;;;;;;5055560;28;20021;-56
2022/04/02 04:06:39;;;;;;;9.73;3.80;;;2.60;99.90;;;;;;5055440;28;20029;-53
2022/04/02 04:09:05;;;;;;;3.75;2.78;;;2.60;99.90;;;;;;5056838;28;20073;-58
2022/04/02 04:11:31;;;;;;;8.15;3.60;;;2.60;99.90;;;;;;5055574;28;20032;-57
2022/04/02 04:13:59;;;;;;;5.05;2.92;;;2.50;99.90;;;;;;5057178;28;20021;-57
2022/04/02 04:16:25;;;;;;;5.95;2.90;;;2.40;99.90;;;;;;5055608;28;20021;-57
2022/04/02 04:18:51;;;;;;;5.05;3.03;;;2.50;99.90;;;;;;5055531;28;20032;-57
2022/04/02 04:21:16;;;;;;;5.60;3.15;;;2.70;99.90;;;;;;5055391;28;20021;-58
2022/04/02 04:23:45;;;;;;;6.25;3.13;;;2.90;99.90;;;;;;5056646;28;20024;-55
2022/04/02 04:26:11;;;;;;;4.90;3.17;;;2.70;99.90;;;;;;5056650;28;20029;-57
2022/04/02 04:28:37;;;;;;;5.75;3.35;;;2.70;99.90;;;;;;5056420;28;20100;-56
2022/04/02 04:31:04;;;;;;;6.85;3.80;;;2.70;99.90;;;;;;5056517;28;20059;-56
2022/04/02 04:33:30;;;;;;;5.82;3.78;;;2.60;99.90;;;;;;5056808;28;20083;-58
2022/04/02 04:35:56;;;;;;;8.15;3.80;;;2.40;99.90;;;;;;5056992;28;20025;-57
2022/04/02 04:38:22;;;;;;;8.90;3.33;;;2.50;99.90;;;;;;5056931;28;20155;-53
2022/04/02 04:40:47;;;;;;;5.55;3.08;;;2.50;99.90;;;;;;5055332;28;20120;-56
2022/04/02 04:43:13;;;;;;;5.53;3.35;;;2.50;99.90;;;;;;5057082;28;20025;-56
2022/04/02 04:45:39;;;;;;;7.95;3.75;;;2.50;99.90;;;;;;5055398;28;20021;-54
2022/04/02 04:48:05;;;;;;;5.78;3.47;;;2.60;99.90;;;;;;5056686;28;20356;-56
2022/04/02 04:50:31;;;;;;;7.00;3.55;;;2.60;99.90;;;;;;5054259;28;20029;-58
2022/04/02 04:52:57;;;;;;;6.97;3.83;;;2.50;99.90;;;;;;5055581;28;20047;-58
2022/04/02 04:55:23;;;;;;;9.35;3.80;;;2.70;99.90;;;;;;5056839;28;20021;-56
2022/04/02 04:57:49;;;;;;;9.13;3.67;;;2.50;99.90;;;;;;5056109;28;20471;-56
2022/04/02 05:00:15;;;;;;;4.40;3.05;;;2.60;99.90;;;;;;5057420;28;20052;-57
2022/04/02 05:02:44;;;;;;;7.55;3.67;;;2.80;99.90;;;;;;5057327;28;20028;-56
2022/04/02 05:05:14;;;;;;;8.85;3.33;;;2.70;99.90;;;;;;5057046;28;20025;-57
2022/04/02 05:07:41;;;;;;;5.93;3.53;;;2.70;99.90;;;;;;5057032;28;20432;-52
2022/04/02 05:10:08;;;;;;;4.65;2.97;;;2.70;99.90;;;;;;5056633;28;20050;-55
2022/04/02 05:12:36;;;;;;;5.05;2.97;;;2.80;99.90;;;;;;5055753;28;20025;-58
2022/04/02 05:15:03;;;;;;;4.28;3.00;;;2.90;99.90;;;;;;5055222;28;20028;-57
2022/04/02 05:17:30;;;;;;;4.80;2.95;;;3.00;99.90;;;;;;5055188;28;20074;-58
2022/04/02 05:19:56;;;;;;;6.03;3.85;;;2.90;99.90;;;;;;5055594;28;20036;-57
2022/04/02 05:22:22;;;;;;;6.15;3.05;;;2.80;99.90;;;;;;5054405;28;20017;-56
2022/04/02 05:24:47;;;;;;;7.00;2.95;;;2.90;99.90;;;;;;5055249;28;20029;-56
2022/04/02 05:27:13;;;;;;;3.60;2.42;;;2.90;99.90;;;;;;5054243;28;20028;-57
2022/04/02 05:29:38;;;;;;;4.05;2.88;;;3.00;99.90;;;;;;5055447;28;20029;-58
2022/04/02 05:32:05;;;;;;;5.55;3.25;;;2.80;99.90;;;;;;5055072;28;20087;-57
2022/04/02 05:34:30;;;;;;;7.05;3.40;;;2.70;99.90;;;;;;5054072;28;20119;-57
2022/04/02 05:36:56;;;;;;;6.68;2.90;;;2.60;99.90;;;;;;5053811;28;20104;-57
2022/04/02 05:39:22;;;;;;;5.45;3.35;;;2.70;99.90;;;;;;5053751;28;20025;-56
2022/04/02 05:41:48;;;;;;;9.18;3.88;;;2.50;99.90;;;;;;5053690;28;20048;-57
2022/04/02 05:44:14;;;;;;;7.78;2.92;;;2.60;99.90;;;;;;5053976;28;20029;-56
2022/04/02 05:46:40;;;;;;;5.63;3.22;;;2.70;99.90;;;;;;5053656;28;20119;-56
2022/04/02 05:49:06;;;;;;;7.88;3.20;;;2.80;99.90;;;;;;5054854;28;20124;-54
2022/04/02 05:51:32;;;;;;;4.53;2.50;;;2.90;99.90;;;;;;5054937;28;20021;-58
2022/04/02 05:53:58;;;;;;;5.10;2.90;;;3.10;99.90;;;;;;5054692;28;20024;-55
2022/04/02 05:56:24;;;;;;;4.75;3.78;;;3.00;99.90;;;;;;5054700;28;20021;-58
2022/04/02 05:58:51;;;;;;;6.82;3.20;;;3.00;99.90;;;;;;5054659;28;20055;-57
2022/04/02 06:01:17;;;;;;;5.75;2.58;;;3.10;99.90;;;;;;5054449;28;20021;-58
2022/04/02 06:03:42;;;;;;;6.22;3.67;;;3.20;99.90;;;;;;5053204;28;20021;-56
2022/04/02 06:06:09;;;;;;;5.38;3.47;;;2.90;99.90;;;;;;5053885;28;20025;-56
2022/04/02 06:08:34;;;;;;;6.78;3.55;;;3.00;99.90;;;;;;5052771;28;20028;-58
2022/04/02 06:11:01;;;;;;;6.43;3.13;;;3.10;99.90;;;;;;5053875;28;20407;-58
2022/04/02 06:13:27;;;;;;;15.57;4.53;;;3.30;99.90;;;;;;5054075;28;20025;-58
2022/04/02 06:15:53;;;;;;;6.72;3.40;;;3.40;99.90;;;;;;5054265;28;20036;-58
2022/04/02 06:18:19;;;;;;;10.55;3.15;;;3.40;99.90;;;;;;5054568;28;20430;-58
2022/04/02 06:20:45;;;;;;;7.00;3.30;;;3.50;99.90;;;;;;5054061;28;20033;-55
2022/04/02 06:23:11;;;;;;;4.18;3.05;;;3.60;99.90;;;;;;5052922;28;20085;-58
2022/04/02 06:25:37;;;;;;;4.53;2.80;;;3.70;99.90;;;;;;5054171;28;20016;-59
2022/04/02 06:28:03;;;;;;;6.93;3.10;;;3.60;99.90;;;;;;5054082;28;20074;-56
2022/04/02 06:30:29;;;;;;;5.80;3.60;;;3.60;99.90;;;;;;5054202;28;20164;-59
2022/04/02 06:32:55;;;;;;;9.45;4.00;;;3.50;99.90;;;;;;5053964;28;20422;-57
2022/04/02 06:35:21;;;;;;;4.88;2.88;;;3.40;99.90;;;;;;5053521;28;20025;-61
2022/04/02 06:37:48;;;;;;;6.88;3.08;;;3.40;99.90;;;;;;5052943;28;20028;-61
2022/04/02 06:40:14;;;;;;;6.07;3.80;;;3.70;99.90;;;;;;5052851;28;20070;-60
2022/04/02 06:42:40;;;;;;;5.13;2.47;;;3.60;99.90;;;;;;5054103;28;20033;-61
2022/04/02 06:45:07;;;;;;;4.85;2.35;;;3.70;99.90;;;;;;5052508;28;20025;-57
2022/04/02 06:47:33;;;;;;;2.80;2.20;;;3.80;99.90;;;;;;5053947;28;20025;-60
2022/04/02 06:50:04;;;;;;;6.60;3.17;;;3.90;99.90;;;;;;5053595;28;20025;-60
2022/04/02 06:52:30;;;;;;;6.63;2.95;;;4.00;99.90;;;;;;5053724;28;20028;-60
2022/04/02 06:54:56;;;;;;;7.63;3.05;;;4.00;99.90;;;;;;5053630;28;20029;-59
2022/04/02 06:57:23;;;;;;;8.98;3.25;;;4.00;99.90;;;;;;5052848;28;20023;-57
2022/04/02 06:59:48;;;;;;;4.53;2.67;;;3.80;99.90;;;;;;5053478;28;20017;-56
2022/04/02 07:02:15;;;;;;;3.65;1.80;;;3.80;99.90;;;;;;5052751;28;20025;-58
2022/04/02 07:04:41;;;;;;;3.95;2.30;;;4.00;99.90;;;;;;5053533;28;20147;-57
2022/04/02 07:07:07;;;;;;;6.18;2.50;;;3.90;99.90;;;;;;5053519;28;20116;-57
2022/04/02 07:09:32;;;;;;;4.15;2.42;;;4.00;99.90;;;;;;5053302;28;20025;-57
2022/04/02 07:11:58;;;;;;;6.78;2.75;;;4.00;99.90;;;;;;5052911;28;20028;-58
2022/04/02 07:14:24;;;;;;;8.55;3.20;;;4.20;99.90;;;;;;5051686;28;20076;-55
2022/04/02 07:16:50;;;;;;;6.47;2.85;;;4.40;99.90;;;;;;5053551;28;20023;-57
2022/04/02 07:19:20;;;;;;;9.25;2.95;;;4.20;99.90;;;;;;5053632;28;20021;-58
2022/04/02 07:21:47;;;;;;;7.18;2.20;;;4.20;99.90;;;;;;5051998;28;20029;-57
2022/04/02 07:24:16;;;;;;;3.22;2.22;;;4.40;99.90;;;;;;5053204;28;20029;-58
2022/04/02 07:26:45;;;;;;;8.18;2.60;;;4.60;99.90;;;;;;5051939;28;20068;-59
2022/04/02 07:29:11;;;;;;;4.45;2.35;;;5.00;99.90;;;;;;5053370;28;20044;-57
2022/04/02 07:31:37;;;;;;;7.22;2.45;;;5.30;99.90;;;;;;5052122;28;20028;-58
2022/04/02 07:34:03;;;;;;;4.63;2.60;;;5.40;99.90;;;;;;5051833;28;20021;-52
2022/04/02 07:36:47;;;;;;;3.78;2.30;;;4.90;99.90;;;;;;5053038;28;20075;-54
2022/04/02 07:39:34;;;;;;;6.40;2.42;;;5.10;99.90;;;;;;5051799;28;20021;-57
2022/04/02 07:42:21;;;;;;;7.63;3.03;;;4.90;99.90;;;;;;5051551;28;20028;-54
2022/04/02 07:45:08;;;;;;;6.45;1.90;;;4.60;99.90;;;;;;5052719;28;20036;-57
2022/04/02 07:47:38;;;;;;;8.00;2.40;;;4.90;99.90;;;;;;5051716;28;20096;-55
2022/04/02 07:50:11;;;;;;;2.78;1.70;;;5.30;99.90;;;;;;5053038;28;20056;-56
2022/04/02 07:52:36;;;;;;;3.25;2.03;;;5.40;99.90;;;;;;5051737;28;20025;-57
2022/04/02 07:55:07;;;;;;;7.53;1.73;;;5.60;99.90;;;;;;5052950;28;20021;-57
2022/04/02 07:57:42;;;;;;;6.75;2.10;;;6.00;99.90;;;;;;5052242;28;20028;-54
2022/04/02 08:00:10;;;;;;;3.10;1.75;;;6.00;99.90;;;;;;5049756;28;20026;-54
2022/04/02 08:02:43;;;;;;;4.82;2.20;;;6.30;99.90;;;;;;5052123;28;20116;-55
2022/04/02 08:05:11;;;;;;;4.95;2.65;;;6.20;99.90;;;;;;5053135;28;20028;-59
2022/04/02 08:07:39;;;;;;;4.40;1.92;;;6.10;99.90;;;;;;5052706;28;20017;-58
2022/04/02 08:10:08;;;;;;;3.90;1.85;;;5.80;99.90;;;;;;5051270;28;20024;-58
2022/04/02 08:12:35;;;;;;;4.90;2.58;;;5.90;99.90;;;;;;5051570;28;20027;-57
2022/04/02 08:15:05;;;;;;;6.35;2.08;;;6.00;99.90;;;;;;5053046;28;20029;-59
2022/04/02 08:17:32;;;;;;;5.93;2.30;;;6.40;99.90;;;;;;5051834;28;20049;-58
2022/04/02 08:20:00;;;;;;;6.18;2.60;;;6.40;99.90;;;;;;5051342;28;20028;-55
2022/04/02 08:22:25;;;;;;;31.88;13.70;;;5.90;99.90;;;;;;5051352;28;20028;-57
2022/04/02 08:24:51;;;;;;;5.93;3.65;;;5.90;99.90;;;;;;5054991;28;20025;-56
2022/04/02 08:27:38;;;;;;;10.25;2.97;;;6.10;99.90;;;;;;5055109;28;20025;-58
2022/04/02 08:30:04;;;;;;;5.43;2.45;;;6.20;99.90;;;;;;5056401;28;20027;-57
2022/04/02 08:32:51;;;;;;;8.40;2.42;;;5.80;99.90;;;;;;5055369;28;20123;-53
2022/04/02 08:35:24;;;;;;;4.78;2.65;;;5.20;99.90;;;;;;5055087;28;20029;-55
2022/04/02 08:37:56;;;;;;;6.18;2.55;;;5.30;99.90;;;;;;5055929;28;20017;-53
2022/04/02 08:40:21;;;;;;;;;;;5.00;99.90;;;;;;5056177;28;20017;-56
2022/04/02 08:43:32;;;;;;;4.82;2.35;;;5.10;99.90;;;;;;5056452;28;19912;-55
2022/04/02 08:46:25;;;;;;;10.02;3.38;;;4.90;99.90;;;;;;5054872;28;20025;-56
2022/04/02 08:48:58;;;;;;;8.15;2.78;;;5.00;99.90;;;;;;5055884;28;20105;-54
2022/04/02 08:51:47;;;;;;;5.25;2.15;;;5.40;99.90;;;;;;5054602;28;20021;-56
2022/04/02 08:54:38;;;;;;;4.10;2.50;;;5.70;99.90;;;;;;5055906;28;20017;-57
2022/04/02 08:57:29;;;;;;;5.13;3.00;;;5.80;99.90;;;;;;5055952;28;20021;-58
2022/04/02 09:00:11;;;;;;;5.97;2.47;;;5.00;99.90;;;;;;5056670;28;20052;-56
2022/04/02 09:03:07;;;;;;;5.43;2.30;;;4.80;99.90;;;;;;5054468;28;20028;-58
2022/04/02 09:05:52;;;;;;;3.40;2.72;;;5.00;99.90;;;;;;5055834;28;20060;-52
2022/04/02 09:08:38;;;;;;;6.60;3.20;;;5.10;99.90;;;;;;5055855;28;20021;-57
2022/04/02 09:11:13;;;;;;;5.93;2.38;;;4.70;99.90;;;;;;5054124;28;20032;-52
2022/04/02 09:14:26;;;;;;;5.65;2.75;;;5.00;99.90;;;;;;5055820;28;20120;-57
2022/04/02 09:17:35;;;;;;;6.20;2.97;;;4.70;99.90;;;;;;4980282;28;20035;-56
2022/04/02 09:20:13;;;;;;;6.68;2.65;;;5.00;99.90;;;;;;5054084;28;20082;-57
2022/04/02 09:23:15;;;;;;;6.03;3.60;;;5.10;99.90;;;;;;5055400;28;20476;-57
2022/04/02 09:26:06;;;;;;;5.32;3.58;;;5.20;99.90;;;;;;5054100;28;20082;-55
2022/04/02 09:28:45;;;;;;;6.85;3.10;;;5.70;99.90;;;;;;5055245;28;20047;-58
2022/04/02 09:31:48;;;;;;;5.95;4.32;;;5.80;99.90;;;;;;5055046;28;20052;-56
2022/04/02 09:34:41;;;;;;;5.30;2.47;;;5.70;99.90;;;;;;5053828;28;20067;-57
2022/04/02 09:37:43;;;;;;;3.70;2.35;;;5.80;99.90;;;;;;5054622;28;20017;-53
2022/04/02 09:40:11;;;;;;;3.58;2.80;;;5.50;99.90;;;;;;5054509;28;20080;-57
2022/04/02 09:42:50;;;;;;;7.57;2.80;;;5.40;99.90;;;;;;5054901;28;20036;-55
2022/04/02 09:45:22;;;;;;;8.25;2.83;;;5.30;99.90;;;;;;5054275;28;20053;-55
2022/04/02 09:47:51;;;;;;;8.20;3.03;;;5.40;99.90;;;;;;5054861;28;20021;-57
2022/04/02 09:50:19;;;;;;;5.40;2.50;;;5.30;99.90;;;;;;5054761;28;20028;-57
2022/04/02 09:53:07;;;;;;;5.00;2.97;;;5.60;99.90;;;;;;5055310;28;20062;-57
2022/04/02 09:55:53;;;;;;;5.85;2.60;;;5.50;99.90;;;;;;5053404;28;20052;-56
2022/04/02 09:58:27;;;;;;;5.82;3.20;;;5.30;99.90;;;;;;5054658;28;20021;-56
2022/04/02 10:01:13;;;;;;;6.78;2.97;;;5.30;99.90;;;;;;5053231;28;20029;-52
2022/04/02 10:04:07;;;;;;;5.70;2.83;;;5.30;99.90;;;;;;5053300;28;20451;-54
2022/04/02 10:06:40;;;;;;;5.55;3.17;;;5.30;99.90;;;;;;4983471;28;20038;-56
2022/04/02 10:09:13;;;;;;;5.30;2.67;;;5.80;99.90;;;;;;5053901;28;20064;-57
2022/04/02 10:12:00;;;;;;;6.10;2.70;;;5.90;99.90;;;;;;5054249;28;20037;-55
2022/04/02 10:14:28;;;;;;;3.97;2.53;;;5.70;99.90;;;;;;5053656;28;20021;-55
2022/04/02 10:17:01;;;;;;;6.85;3.20;;;5.60;99.90;;;;;;5054280;28;20025;-53
2022/04/02 10:19:31;;;;;;;6.43;3.75;;;5.60;99.90;;;;;;5054601;28;20083;-58
2022/04/02 10:22:03;;;;;;;8.15;2.47;;;5.50;99.90;;;;;;5053170;28;20101;-56
2022/04/02 10:24:42;;;;;;;3.70;2.00;;;5.50;99.90;;;;;;5052894;28;20025;-59
2022/04/02 10:27:11;;;;;;;6.20;2.63;;;6.00;99.90;;;;;;5054119;28;20079;-57
2022/04/02 10:29:42;;;;;;;7.15;2.95;;;6.00;99.90;;;;;;5052717;28;20055;-58
2022/04/02 10:32:29;;;;;;;6.75;2.35;;;6.30;99.90;;;;;;5054023;28;20067;-58
2022/04/02 10:35:03;;;;;;;8.57;2.22;;;6.50;99.90;;;;;;5052697;28;20021;-56
2022/04/02 10:37:51;;;;;;;5.68;2.67;;;6.60;99.90;;;;;;5053540;28;20025;-58
2022/04/02 10:40:18;;;;;;;7.60;2.33;;;6.90;99.90;;;;;;5052560;28;20021;-57
2022/04/02 10:42:52;;;;;;;6.00;2.72;;;6.60;99.90;;;;;;5052602;28;20021;-57
2022/04/02 10:45:20;;;;;;;2.80;1.95;;;6.00;99.90;;;;;;5053743;28;20048;-55
2022/04/02 10:47:56;;;;;;;6.60;2.65;;;5.80;99.90;;;;;;5053987;28;20035;-57
2022/04/02 10:50:22;;;;;;;4.25;2.00;;;5.80;99.90;;;;;;5052959;28;20110;-56
2022/04/02 10:52:49;;;;;;;4.72;2.60;;;5.70;99.90;;;;;;5053684;28;20017;-55
2022/04/02 10:55:17;;;;;;;5.13;2.38;;;5.70;99.90;;;;;;5052374;28;20108;-56
2022/04/02 10:57:43;;;;;;;5.68;2.75;;;5.90;99.90;;;;;;5052359;28;20017;-55
2022/04/02 11:00:10;;;;;;;8.85;2.13;;;5.70;99.90;;;;;;5053402;28;20028;-58
2022/04/02 11:02:46;;;;;;;3.45;2.00;;;5.70;99.90;;;;;;5052138;28;20021;-57
2022/04/02 11:05:14;;;;;;;9.18;2.47;;;5.50;99.90;;;;;;5052134;28;20116;-58
2022/04/02 11:07:49;;;;;;;4.57;2.15;;;5.40;99.90;;;;;;5052134;28;20093;-56
2022/04/02 11:10:20;;;;;;;4.32;2.00;;;5.20;99.90;;;;;;5053200;28;20028;-56
2022/04/02 11:12:48;;;;;;;5.30;2.67;;;5.30;99.90;;;;;;5053665;28;20021;-56
2022/04/02 11:15:19;;;;;;;3.88;2.42;;;5.50;99.90;;;;;;5053379;28;20264;-58
2022/04/02 11:17:46;;;;;;;5.32;2.20;;;5.80;99.90;;;;;;5052984;28;20027;-55
2022/04/02 11:20:17;;;;;;;3.97;2.38;;;5.80;99.90;;;;;;5053276;28;20028;-54
2022/04/02 11:22:51;;;;;;;4.22;2.53;;;5.90;99.90;;;;;;5053310;28;20108;-56
2022/04/02 11:25:32;;;;;;;7.90;2.53;;;6.10;99.90;;;;;;5053556;28;20021;-56
2022/04/02 11:28:09;;;;;;;3.25;2.03;;;6.50;99.90;;;;;;5053548;28;20021;-55
2022/04/02 11:30:42;;;;;;;5.07;2.60;;;6.20;99.90;;;;;;5053056;28;20017;-57
2022/04/02 11:33:12;;;;;;;6.10;2.75;;;6.30;99.90;;;;;;5053088;28;20032;-58
2022/04/02 11:36:06;;;;;;;3.90;2.28;;;6.50;99.90;;;;;;5052171;28;20028;-55
2022/04/02 11:38:56;;;;;;;3.58;2.15;;;6.60;99.90;;;;;;5053185;28;20025;-56
2022/04/02 11:41:34;;;;;;;3.42;2.15;;;6.00;99.90;;;;;;5053216;28;20476;-58
2022/04/02 11:44:16;;;;;;;5.85;2.58;;;5.50;99.90;;;;;;5051859;28;20115;-50
2022/04/02 11:46:50;;;;;;;4.60;2.17;;;5.40;99.90;;;;;;5053387;28;20033;-54
2022/04/02 11:49:26;;;;;;;5.53;1.90;;;5.40;99.90;;;;;;5052924;28;20025;-54
2022/04/02 11:52:03;;;;;;;3.15;2.10;;;5.60;99.90;;;;;;5051740;28;20028;-55
2022/04/02 11:54:29;;;;;;;3.45;1.88;;;5.60;99.90;;;;;;5051638;28;20025;-52
2022/04/02 11:57:10;;;;;;;8.32;2.70;;;5.60;99.90;;;;;;5052403;28;20071;-55
2022/04/02 11:59:37;;;;;;;5.30;1.98;;;5.80;99.90;;;;;;5053617;28;20083;-52
2022/04/02 12:02:03;;;;;;;3.40;2.03;;;5.90;99.90;;;;;;5052899;28;20391;-56
2022/04/02 12:04:29;;;;;;;6.85;2.90;;;5.80;99.90;;;;;;5056825;28;20024;-57
2022/04/02 12:07:06;;;;;;;4.38;2.38;;;5.90;99.90;;;;;;5056830;28;20504;-56
2022/04/02 12:09:33;;;;;;;5.63;2.80;;;6.30;99.90;;;;;;5055581;28;20086;-57
2022/04/02 12:12:05;;;;;;;6.50;2.08;;;6.40;99.90;;;;;;5056714;28;20471;-57
2022/04/02 12:14:39;;;;;;;11.60;2.22;;;6.40;99.90;;;;;;5055302;28;20091;-58
2022/04/02 12:17:09;;;;;;;5.57;2.95;;;6.30;99.90;;;;;;5056519;28;20017;-58
2022/04/02 12:19:40;;;;;;;8.32;2.45;;;6.30;99.90;;;;;;5055435;28;20025;-58
2022/04/02 12:22:19;;;;;;;5.20;2.57;;;6.50;99.90;;;;;;5055273;28;20025;-53
2022/04/02 12:24:52;;;;;;;6.00;2.30;;;6.70;99.90;;;;;;5056445;28;20025;-58
2022/04/02 12:27:23;;;;;;;4.70;2.05;;;6.60;99.90;;;;;;5056680;28;20104;-58
2022/04/02 12:29:54;;;;;;;3.95;2.55;;;6.40;99.90;;;;;;5056577;28;20017;-58
2022/04/02 12:32:32;;;;;;;6.05;2.92;;;6.30;99.90;;;;;;5056469;28;20582;-58
2022/04/02 12:35:02;;;;;;;5.03;2.20;;;6.60;99.90;;;;;;5056565;28;20049;-58
2022/04/02 12:37:49;;;;;;;8.25;3.28;;;6.60;99.90;;;;;;5054837;28;20070;-57
2022/04/02 12:40:17;;;;;;;4.68;2.58;;;6.50;99.90;;;;;;5054107;28;20037;-59
2022/04/02 12:42:44;;;;;;;7.15;2.40;;;6.80;99.90;;;;;;5054848;28;20032;-58
2022/04/02 12:45:17;;;;;;;4.50;2.60;;;6.80;99.90;;;;;;5056297;28;20026;-57
2022/04/02 12:47:59;;;;;;;2.03;1.73;;;6.90;99.90;;;;;;5054759;28;20025;-56
2022/04/02 12:50:26;;;;;;;4.97;2.70;;;6.40;99.90;;;;;;5054612;28;20017;-57
2022/04/02 12:52:51;;;;;;;5.22;2.20;;;6.50;99.90;;;;;;5055820;28;20033;-58
2022/04/02 12:55:17;;;;;;;12.55;2.88;;;6.70;99.90;;;;;;5055866;28;20021;-57
2022/04/02 12:58:02;;;;;;;6.25;3.13;;;6.30;99.90;;;;;;5055883;28;20041;-59
2022/04/02 13:00:30;;;;;;;5.90;2.67;;;6.60;99.90;;;;;;5054544;28;20479;-53
2022/04/02 13:02:59;;;;;;;4.78;2.85;;;6.80;99.90;;;;;;5055787;28;20100;-55
2022/04/02 13:05:27;;;;;;;5.47;2.45;;;6.80;99.90;;;;;;5054406;28;20087;-55
2022/04/02 13:08:04;;;;;;;8.50;3.78;;;6.60;99.90;;;;;;5054617;28;20471;-56
2022/04/02 13:10:30;;;;;;;13.57;3.42;;;6.70;99.90;;;;;;5054493;28;20047;-58
2022/04/02 13:13:03;;;;;;;7.65;3.88;;;6.60;99.90;;;;;;5054221;28;20017;-52
2022/04/02 13:15:29;;;;;;;8.32;3.70;;;6.10;99.90;;;;;;5055787;28;20021;-54
2022/04/02 13:20:47;;;;;;;4.40;3.15;;;5.70;99.90;;;;;;5035866;28;20025;-58